Fort Spring, West Virginia
Current Conditions -  °F | °C
As of 3:35 PM on Friday 28 Nov 2014 (Local Time) from KLWB Reporting Station
Scattered Clouds Scattered Clouds  
Wind Chill: -5°   Ceiling: Unl
Heat Index: -1°   Visibility: 10mi
Dew Point: -8°   Wind: 7mph
Humidity: 57%   Direction: 250°WSW
Pressure: 30.21"   Gusts: NA
Location:  37.74°N, 80.54°W
Report Text: KLWB 282035Z AUTO 25006KT 10SM SCT090 M01/M08 A3021 RMK AO2 T10081083
Loading
Personal Weather Stations






























Interactive Weather Map New forecast layout! Learn more

10-Day Weather Forecast

Advertisements
Track Severe Weather on mobile